Time;durP1;ratioP1;P1;durP2;ratioP2;P2;SDS_P1;SDS_P2;PMS_P1;PMS_P2;Temp;Humidity;BMP_temperature;BMP_pressure;BME280_temperature;BME280_humidity;BME280_pressure;Samples;Min_cycle;Max_cycle;Signal;HPM_P1;HPM_P2
2024/03/21 00:01:00;;;;;;;16.50;10.80;;;;;;;4.14;100.00;100155.61;109132;1253;75703;-79
2024/03/21 00:03:28;;;;;;;20.40;10.30;;;;;;;4.11;100.00;100153.90;109246;1253;71430;-78
2024/03/21 00:05:55;;;;;;;13.80;9.40;;;;;;;4.11;100.00;100154.27;109266;1253;71531;-77
2024/03/21 00:08:22;;;;;;;15.60;10.00;;;;;;;4.09;100.00;100151.93;109294;1253;60395;-78
2024/03/21 00:10:49;;;;;;;14.90;9.50;;;;;;;4.08;100.00;100156.80;109070;1255;60994;-78
2024/03/21 00:13:17;;;;;;;17.60;10.10;;;;;;;4.05;100.00;100151.77;108899;1255;73508;-78
2024/03/21 00:15:44;;;;;;;16.70;9.70;;;;;;;4.03;100.00;100155.27;108856;1253;69122;-77
2024/03/21 00:18:13;;;;;;;18.90;10.50;;;;;;;3.99;100.00;100154.33;109087;1253;71399;-79
2024/03/21 00:20:49;;;;;;;19.10;10.30;;;;;;;3.93;100.00;100153.52;109280;1253;60473;-78
2024/03/21 00:23:16;;;;;;;14.80;9.70;;;;;;;3.89;100.00;100154.58;108860;1253;61735;-79
2024/03/21 00:25:43;;;;;;;19.60;10.30;;;;;;;3.88;100.00;100156.02;109180;1253;73475;-77
2024/03/21 00:28:11;;;;;;;19.90;10.80;;;;;;;3.86;100.00;100154.60;109032;1253;69155;-78
2024/03/21 00:30:39;;;;;;;23.90;11.90;;;;;;;3.85;100.00;100155.70;108618;1253;72686;-78
2024/03/21 00:33:07;;;;;;;16.40;10.00;;;;;;;3.86;100.00;100151.09;108859;1253;59897;-77
2024/03/21 00:35:35;;;;;;;20.80;11.40;;;;;;;3.84;100.00;100156.29;108888;1253;58802;-76
2024/03/21 00:38:02;;;;;;;17.80;10.40;;;;;;;3.84;99.98;100154.93;108985;1253;73436;-77
2024/03/21 00:40:30;;;;;;;18.90;10.70;;;;;;;3.86;100.00;100158.48;108505;1253;69045;-78
2024/03/21 00:42:57;;;;;;;17.50;11.10;;;;;;;3.85;99.97;100154.64;109040;1253;71266;-76
2024/03/21 00:45:24;;;;;;;18.00;10.80;;;;;;;3.85;99.95;100155.54;109028;1255;61492;-77
2024/03/21 00:47:52;;;;;;;23.50;12.00;;;;;;;3.84;99.90;100154.39;109023;1253;59037;-77
2024/03/21 00:50:19;;;;;;;18.90;11.30;;;;;;;3.80;100.00;100154.02;108938;1253;73388;-78
2024/03/21 00:52:47;;;;;;;16.30;11.20;;;;;;;3.79;99.60;100153.58;108768;1253;69803;-77
2024/03/21 00:55:14;;;;;;;19.10;11.40;;;;;;;3.80;99.74;100151.38;108854;1253;71426;-77
2024/03/21 00:57:41;;;;;;;20.60;11.50;;;;;;;3.77;99.68;100153.02;108874;1253;61067;-79
2024/03/21 01:00:13;;;;;;;16.20;10.20;;;;;;;3.73;99.42;100149.54;108854;1253;59727;-76
2024/03/21 01:02:41;;;;;;;18.00;11.00;;;;;;;3.72;99.35;100148.95;109160;1253;73381;-75
2024/03/21 01:05:13;;;;;;;20.30;10.80;;;;;;;3.68;99.37;100144.32;109017;1253;68746;-75
2024/03/21 01:07:40;;;;;;;18.80;9.70;;;;;;;3.70;99.14;100145.61;108617;1254;411905;-76
2024/03/21 01:11:15;;;;;;;15.50;9.70;;;;;;;3.70;99.13;100144.38;105634;1294;600037;-76
2024/03/21 01:13:43;;;;;;;16.80;9.60;;;;;;;3.61;99.38;100144.51;108213;1268;60980;-76
2024/03/21 01:16:11;;;;;;;17.70;8.60;;;;;;;3.60;99.19;100144.93;108154;1269;58978;-77
2024/03/21 01:18:38;;;;;;;20.50;9.60;;;;;;;3.58;99.18;100144.39;107930;1268;71808;-76
2024/03/21 01:21:06;;;;;;;16.20;8.70;;;;;;;3.50;99.02;100140.63;107151;1269;69054;-77
2024/03/21 01:23:33;;;;;;;15.60;8.70;;;;;;;3.48;99.11;100139.68;107058;1270;71630;-77
2024/03/21 01:26:01;;;;;;;13.90;8.60;;;;;;;3.45;98.83;100143.77;107651;1264;187074;-77
2024/03/21 01:28:29;;;;;;;20.70;9.60;;;;;;;3.38;98.61;100139.75;108427;1264;58845;-78
2024/03/21 01:30:59;;;;;;;14.30;8.80;;;;;;;3.36;98.45;100145.27;108089;1264;71782;-76
2024/03/21 01:33:27;;;;;;;19.30;9.10;;;;;;;3.36;98.50;100142.15;107994;1263;68923;-76
2024/03/21 01:35:55;;;;;;;17.40;8.60;;;;;;;3.29;98.54;100138.42;107480;1267;71396;-78
2024/03/21 01:38:23;;;;;;;15.10;8.20;;;;;;;3.28;98.89;100138.69;107714;1263;60550;-76
2024/03/21 01:40:50;;;;;;;15.50;8.30;;;;;;;3.31;98.76;100140.02;108459;1265;58924;-78
2024/03/21 01:43:27;;;;;;;12.30;7.90;;;;;;;3.29;98.78;100144.41;108551;1263;72577;-77
2024/03/21 01:46:09;;;;;;;14.50;8.80;;;;;;;3.30;99.27;100146.57;108135;1264;69081;-77
2024/03/21 01:48:37;;;;;;;13.50;7.90;;;;;;;3.35;99.15;100143.61;107493;1264;70416;-77
2024/03/21 01:51:04;;;;;;;15.20;8.50;;;;;;;3.34;99.24;100144.53;107564;1265;60733;-77
2024/03/21 01:53:32;;;;;;;14.80;8.50;;;;;;;3.38;99.33;100144.65;108514;1261;58742;-78
2024/03/21 01:55:59;;;;;;;14.40;9.60;;;;;;;3.39;99.26;100144.20;108767;1259;72330;-79
2024/03/21 01:58:27;;;;;;;11.10;8.50;;;;;;;3.37;99.44;100143.27;108568;1254;67758;-77
2024/03/21 02:00:54;;;;;;;14.50;8.70;;;;;;;3.39;99.15;100144.90;108978;1255;71433;-77
2024/03/21 02:03:21;;;;;;;16.40;9.00;;;;;;;3.42;98.87;100144.53;108836;1254;59334;-77
2024/03/21 02:05:48;;;;;;;13.90;8.10;;;;;;;3.40;99.07;100143.27;108920;1255;58778;-78
2024/03/21 02:08:16;;;;;;;15.30;9.10;;;;;;;3.40;99.05;100146.98;108901;1255;72617;-77
2024/03/21 02:10:43;;;;;;;14.10;8.90;;;;;;;3.41;98.96;100145.52;108959;1255;69008;-76
2024/03/21 02:13:12;;;;;;;17.80;8.50;;;;;;;3.40;98.34;100145.87;108912;1255;73778;-77
2024/03/21 02:15:39;;;;;;;13.90;9.00;;;;;;;3.34;98.06;100149.83;108926;1256;60683;-75
2024/03/21 02:18:07;;;;;;;16.10;8.20;;;;;;;3.34;98.09;100151.40;108967;1256;61300;-77
2024/03/21 02:20:34;;;;;;;19.10;8.90;;;;;;;3.34;97.91;100147.86;108992;1255;72594;-76
2024/03/21 02:23:02;;;;;;;15.50;8.20;;;;;;;3.32;98.34;100145.38;108685;1255;69005;-74
2024/03/21 02:25:29;;;;;;;14.70;8.90;;;;;;;3.33;98.16;100145.19;108822;1254;70426;-79
2024/03/21 02:27:56;;;;;;;13.90;8.40;;;;;;;3.34;98.58;100147.85;108951;1255;58904;-76
2024/03/21 02:30:24;;;;;;;15.40;8.40;;;;;;;3.32;98.48;100147.91;108630;1255;61302;-76
2024/03/21 02:32:51;;;;;;;16.10;7.70;;;;;;;3.32;98.55;100150.16;107706;1255;72768;-75
2024/03/21 02:35:18;;;;;;;14.40;8.40;;;;;;;3.34;98.44;100150.67;108055;1258;69720;-77
2024/03/21 02:37:46;;;;;;;12.90;8.50;;;;;;;3.32;98.74;100151.38;107041;1256;71769;-76
2024/03/21 02:40:13;;;;;;;15.90;9.50;;;;;;;3.31;98.58;100148.81;105758;1262;60685;-77
2024/03/21 02:42:41;;;;;;;16.10;8.80;;;;;;;3.30;98.28;100148.73;105975;1256;59287;-78
2024/03/21 02:45:09;;;;;;;15.20;8.70;;;;;;;3.24;98.18;100151.11;106363;1255;73949;-75
2024/03/21 02:47:36;;;;;;;15.40;8.40;;;;;;;3.20;98.21;100153.84;106639;1255;69703;-75
2024/03/21 02:50:05;;;;;;;17.60;9.00;;;;;;;3.18;98.17;100152.73;106318;1260;72008;-76
2024/03/21 02:52:32;;;;;;;19.80;9.40;;;;;;;3.14;98.53;100153.38;106707;1257;62631;-77
2024/03/21 02:55:00;;;;;;;17.60;9.90;;;;;;;3.16;99.02;100156.06;107238;1256;60545;-77
2024/03/21 02:57:27;;;;;;;23.00;10.20;;;;;;;3.18;98.97;100157.98;107206;1256;72577;-77
2024/03/21 02:59:55;;;;;;;15.60;8.90;;;;;;;3.14;98.51;100159.86;106130;1256;68930;-77
2024/03/21 03:02:22;;;;;;;14.90;8.60;;;;;;;3.14;98.53;100158.58;106022;1260;70073;-76
2024/03/21 03:04:49;;;;;;;15.80;9.60;;;;;;;3.15;98.75;100160.83;106061;1260;60945;-76
2024/03/21 03:07:17;;;;;;;19.00;10.50;;;;;;;3.13;98.90;100160.78;105807;1262;60439;-75
2024/03/21 03:09:44;;;;;;;15.80;10.60;;;;;;;3.12;98.75;100164.02;105808;1260;78461;-74
2024/03/21 03:12:11;;;;;;;16.50;10.20;;;;;;;3.13;98.02;100162.54;105827;1258;68908;-74
2024/03/21 03:14:39;;;;;;;17.90;11.00;;;;;;;3.12;98.22;100164.34;105652;1259;71502;-76
2024/03/21 03:17:06;;;;;;;16.40;9.20;;;;;;;3.09;98.75;100164.36;105722;1257;61506;-75
2024/03/21 03:19:33;;;;;;;17.60;10.70;;;;;;;3.07;98.61;100166.34;105746;1256;60599;-74
2024/03/21 03:22:00;;;;;;;16.80;11.40;;;;;;;3.04;98.66;100164.45;105692;1260;74218;-74
2024/03/21 03:24:28;;;;;;;20.20;11.40;;;;;;;3.01;98.55;100171.50;105666;1255;68045;-75
2024/03/21 03:26:56;;;;;;;21.50;10.70;;;;;;;2.97;99.10;100173.46;105719;1255;71966;-76
2024/03/21 03:29:23;;;;;;;18.90;9.80;;;;;;;2.93;99.37;100172.35;105843;1256;61668;-72
2024/03/21 03:31:52;;;;;;;17.80;10.80;;;;;;;2.91;99.39;100178.94;105699;1257;60487;-75
2024/03/21 03:37:06;;;;;;;22.50;11.30;;;;;;;2.87;99.07;100174.18;105996;1256;69717;-74
2024/03/21 03:39:33;;;;;;;17.80;9.90;;;;;;;2.86;98.90;100179.51;105622;1258;74733;-75
2024/03/21 03:42:00;;;;;;;18.80;11.00;;;;;;;2.83;99.08;100179.91;106259;1255;61763;-77
2024/03/21 03:44:28;;;;;;;16.90;11.00;;;;;;;2.79;98.68;100187.72;107693;1261;60361;-76
2024/03/21 03:46:55;;;;;;;16.30;10.50;;;;;;;2.76;98.99;100188.91;105869;1258;72246;-76
2024/03/21 03:49:22;;;;;;;15.90;10.90;;;;;;;2.72;99.14;100191.33;105766;1255;71047;-79
2024/03/21 03:51:49;;;;;;;17.60;11.70;;;;;;;2.72;99.08;100199.72;105935;1260;70450;-80
2024/03/21 03:54:17;;;;;;;19.70;11.50;;;;;;;2.72;99.04;100199.53;105801;1256;60524;-77
2024/03/21 03:56:44;;;;;;;17.00;12.30;;;;;;;2.67;99.10;100200.95;105837;1260;60517;-76
2024/03/21 03:59:12;;;;;;;16.90;12.20;;;;;;;2.64;99.05;100204.49;105614;1255;72918;-77
2024/03/21 04:01:39;;;;;;;20.90;12.20;;;;;;;2.61;98.65;100202.57;105672;1255;70198;-78
2024/03/21 04:04:06;;;;;;;22.30;12.80;;;;;;;2.57;98.81;100201.97;105746;1255;70461;-80
2024/03/21 04:06:34;;;;;;;23.60;14.40;;;;;;;2.56;99.12;100203.23;105710;1258;60580;-76
2024/03/21 04:09:01;;;;;;;26.30;14.10;;;;;;;2.52;99.10;100204.75;105665;1255;60374;-76
2024/03/21 04:11:29;;;;;;;22.90;13.40;;;;;;;2.49;99.11;100204.78;105579;1263;73972;-73
2024/03/21 04:13:56;;;;;;;29.10;16.60;;;;;;;2.51;98.98;100208.00;105209;1261;69350;-75
2024/03/21 04:16:24;;;;;;;24.20;14.00;;;;;;;2.47;99.26;100208.44;105900;1258;72973;-76
2024/03/21 04:18:51;;;;;;;20.40;13.70;;;;;;;2.47;99.61;100208.80;105658;1256;63072;-76
2024/03/21 04:21:19;;;;;;;20.20;12.90;;;;;;;2.48;99.19;100212.88;105689;1254;60369;-74
2024/03/21 04:23:46;;;;;;;19.80;12.80;;;;;;;2.48;99.60;100214.13;105657;1255;72638;-79
2024/03/21 04:26:13;;;;;;;22.10;14.70;;;;;;;2.47;99.84;100218.02;105749;1255;70098;-76
2024/03/21 04:28:40;;;;;;;21.00;11.50;;;;;;;2.49;99.94;100216.83;105655;1258;72827;-79
2024/03/21 04:31:08;;;;;;;22.70;12.40;;;;;;;2.52;99.45;100217.89;105635;1258;60353;-73
2024/03/21 04:33:35;;;;;;;16.10;11.30;;;;;;;2.49;99.31;100222.10;105794;1255;60412;-77
2024/03/21 04:36:03;;;;;;;15.40;10.60;;;;;;;2.50;99.58;100221.15;106325;1260;71937;-74
2024/03/21 04:38:30;;;;;;;18.10;10.90;;;;;;;2.51;99.55;100222.46;106845;1257;68502;-73
2024/03/21 04:41:13;;;;;;;17.80;10.80;;;;;;;2.55;99.50;100225.21;106078;1258;71189;-75
2024/03/21 04:43:40;;;;;;;22.40;12.20;;;;;;;2.58;99.60;100229.52;105807;1256;61874;-75
2024/03/21 04:46:07;;;;;;;21.90;12.20;;;;;;;2.54;99.62;100232.59;105389;1256;60509;-74
2024/03/21 04:48:35;;;;;;;20.90;12.70;;;;;;;2.52;99.53;100233.05;105517;1263;73904;-75
2024/03/21 04:51:02;;;;;;;26.60;12.90;;;;;;;2.55;99.36;100231.46;105268;1255;68636;-74
2024/03/21 04:53:30;;;;;;;22.00;14.30;;;;;;;2.59;99.40;100232.65;105537;1258;72739;-75
2024/03/21 04:55:57;;;;;;;27.50;13.90;;;;;;;2.57;99.50;100236.98;105723;1254;60533;-77
2024/03/21 04:58:24;;;;;;;28.20;14.60;;;;;;;2.57;99.83;100233.23;105594;1263;60972;-76
2024/03/21 05:00:52;;;;;;;28.50;14.30;;;;;;;2.65;99.76;100230.16;105560;1261;74774;-74
2024/03/21 05:03:19;;;;;;;24.80;13.40;;;;;;;2.67;99.13;100231.76;105528;1255;69931;-75
2024/03/21 05:05:46;;;;;;;25.60;13.70;;;;;;;2.69;99.49;100237.88;105727;1256;72521;-74
2024/03/21 05:08:14;;;;;;;23.70;14.60;;;;;;;2.78;99.79;100237.05;105736;1256;60517;-77
2024/03/21 05:10:41;;;;;;;19.20;14.00;;;;;;;2.88;99.92;100235.68;105579;1261;60519;-74
2024/03/21 05:13:08;;;;;;;25.50;13.20;;;;;;;2.94;100.00;100238.77;105720;1256;74290;-76
2024/03/21 05:15:36;;;;;;;21.20;12.20;;;;;;;3.01;99.93;100239.00;105681;1260;69510;-76
2024/03/21 05:18:03;;;;;;;19.00;11.80;;;;;;;3.07;99.55;100243.14;105821;1256;73742;-74
2024/03/21 05:20:32;;;;;;;22.90;12.00;;;;;;;3.10;99.58;100243.08;105709;1260;61231;-76
2024/03/21 05:22:59;;;;;;;20.30;12.60;;;;;;;3.18;99.87;100242.73;105679;1255;61143;-76
2024/03/21 05:25:26;;;;;;;20.20;12.40;;;;;;;3.24;99.95;100244.55;105814;1257;73442;-75
2024/03/21 05:27:54;;;;;;;17.30;12.60;;;;;;;3.34;100.00;100244.73;105836;1259;69728;-75
2024/03/21 05:30:21;;;;;;;18.80;11.30;;;;;;;3.44;100.00;100248.88;106598;1255;72823;-76
2024/03/21 05:32:48;;;;;;;16.80;11.30;;;;;;;3.51;99.97;100246.98;107486;1256;61178;-77
2024/03/21 05:35:17;;;;;;;17.30;12.20;;;;;;;3.59;99.88;100243.80;106922;1256;61199;-77
2024/03/21 05:37:44;;;;;;;20.00;14.20;;;;;;;3.67;99.43;100245.00;105800;1255;73447;-77
2024/03/21 05:40:14;;;;;;;22.70;13.20;;;;;;;3.68;98.88;100246.70;105840;1255;69023;-76
2024/03/21 05:42:44;;;;;;;21.40;13.40;;;;;;;3.72;98.52;100253.18;105894;1255;72914;-76
2024/03/21 05:45:12;;;;;;;26.20;13.70;;;;;;;3.78;98.22;100251.89;106082;1255;61244;-75
2024/03/21 05:47:39;;;;;;;20.30;13.40;;;;;;;3.79;98.33;100256.08;105996;1255;61386;-76
2024/03/21 05:50:07;;;;;;;24.10;13.00;;;;;;;3.86;98.65;100258.48;105811;1255;74610;-75
2024/03/21 05:52:34;;;;;;;20.40;12.90;;;;;;;3.98;98.90;100261.48;105810;1262;69206;-76
2024/03/21 05:55:02;;;;;;;19.10;12.90;;;;;;;4.03;99.01;100259.17;105760;1260;72810;-76
2024/03/21 05:57:29;;;;;;;23.10;12.90;;;;;;;4.12;98.65;100260.04;105730;1256;61275;-78
2024/03/21 05:59:56;;;;;;;20.70;13.80;;;;;;;4.20;98.15;100261.98;105806;1255;61444;-75
2024/03/21 06:02:24;;;;;;;20.00;14.00;;;;;;;4.22;98.12;100263.21;105670;1256;76629;-76
2024/03/21 06:04:51;;;;;;;18.30;12.90;;;;;;;4.26;97.50;100264.67;105652;1259;69067;-75
2024/03/21 06:07:18;;;;;;;25.20;16.60;;;;;;;4.32;97.68;100269.48;105700;1260;72631;-76
2024/03/21 06:09:45;;;;;;;17.70;13.90;;;;;;;4.39;97.86;100270.15;105886;1255;61330;-75
2024/03/21 06:12:13;;;;;;;19.80;13.50;;;;;;;4.42;96.98;100270.64;105936;1255;61347;-76
2024/03/21 06:14:40;;;;;;;21.60;13.20;;;;;;;4.47;96.50;100274.53;105677;1261;74994;-74
2024/03/21 06:17:08;;;;;;;21.00;12.70;;;;;;;4.49;96.74;100274.53;105591;1257;68963;-76
2024/03/21 06:19:35;;;;;;;16.20;11.30;;;;;;;4.55;96.80;100280.23;105676;1256;71846;-74
2024/03/21 06:22:02;;;;;;;18.40;13.10;;;;;;;4.60;96.84;100278.62;105817;1256;61361;-75
2024/03/21 06:24:29;;;;;;;17.90;12.80;;;;;;;4.63;97.24;100277.83;105889;1255;61262;-75
2024/03/21 06:26:57;;;;;;;20.80;10.70;;;;;;;4.71;97.30;100275.67;106379;1259;74238;-76
2024/03/21 06:29:28;;;;;;;13.40;10.30;;;;;;;4.77;96.66;100276.06;106777;1254;69068;-76
2024/03/21 06:31:55;;;;;;;17.70;10.80;;;;;;;4.87;96.68;100277.94;105823;1261;71457;-76
2024/03/21 06:34:22;;;;;;;16.40;10.70;;;;;;;4.93;96.74;100274.87;105974;1255;62720;-74
2024/03/21 06:36:50;;;;;;;18.00;11.00;;;;;;;5.02;96.88;100275.36;106018;1260;61165;-76
2024/03/21 06:39:19;;;;;;;17.10;11.80;;;;;;;5.11;96.40;100271.31;105718;1256;73374;-74
2024/03/21 06:41:46;;;;;;;18.50;12.50;;;;;;;5.14;95.47;100273.23;105870;1260;70225;-73
2024/03/21 06:44:14;;;;;;;18.60;11.60;;;;;;;5.21;95.78;100276.34;105864;1255;71484;-76
2024/03/21 06:46:41;;;;;;;17.70;11.90;;;;;;;5.34;95.99;100276.58;105991;1258;61770;-76
2024/03/21 06:49:09;;;;;;;16.60;12.50;;;;;;;5.50;96.12;100284.80;105967;1256;61300;-76
2024/03/21 06:51:36;;;;;;;17.40;12.00;;;;;;;5.61;95.73;100286.36;105942;1256;75459;-75
2024/03/21 06:54:03;;;;;;;21.30;12.80;;;;;;;5.74;96.24;100282.88;105718;1261;70356;-76
2024/03/21 06:56:31;;;;;;;15.50;12.60;;;;;;;5.89;96.38;100279.90;105828;1255;73358;-75
2024/03/21 06:58:58;;;;;;;19.40;13.50;;;;;;;6.07;96.08;100281.66;105647;1256;61326;-75
2024/03/21 07:01:25;;;;;;;19.40;12.20;;;;;;;6.21;95.95;100282.60;105833;1255;62383;-75
2024/03/21 07:03:54;;;;;;;18.30;12.30;;;;;;;6.33;95.37;100283.04;105691;1256;76994;-75
2024/03/21 07:06:21;;;;;;;17.20;12.30;;;;;;;6.42;94.86;100282.63;105643;1263;68745;-74
2024/03/21 07:08:49;;;;;;;18.80;11.80;;;;;;;6.43;94.19;100279.19;105552;1261;74487;-75
2024/03/21 07:11:16;;;;;;;17.20;11.50;;;;;;;6.46;94.50;100276.83;105696;1261;62762;-74
2024/03/21 07:13:43;;;;;;;14.70;11.70;;;;;;;6.52;94.44;100282.02;105784;1260;61253;-76
2024/03/21 07:16:16;;;;;;;16.00;11.70;;;;;;;6.49;94.04;100278.31;105724;1255;73788;-75
2024/03/21 07:18:43;;;;;;;14.30;11.10;;;;;;;6.51;93.35;100281.69;105661;1256;70002;-75
2024/03/21 07:21:11;;;;;;;17.00;11.20;;;;;;;6.51;92.08;100283.11;106800;1255;73987;-76
2024/03/21 07:23:38;;;;;;;16.50;11.00;;;;;;;6.47;91.23;100285.14;107262;1260;61260;-74
2024/03/21 07:26:06;;;;;;;14.00;11.80;;;;;;;6.49;92.02;100291.55;106015;1255;61222;-75
2024/03/21 07:28:33;;;;;;;18.20;10.80;;;;;;;6.52;92.07;100290.77;105770;1255;76744;-75
2024/03/21 07:31:01;;;;;;;15.70;10.00;;;;;;;6.58;91.83;100289.44;105757;1256;70731;-75
2024/03/21 07:33:28;;;;;;;19.30;11.20;;;;;;;6.62;91.44;100292.04;105575;1256;72975;-76
2024/03/21 07:35:55;;;;;;;15.70;11.50;;;;;;;6.67;90.82;100291.95;105645;1256;61846;-76
2024/03/21 07:38:23;;;;;;;16.10;11.50;;;;;;;6.72;90.93;100295.42;106158;1259;61385;-74
2024/03/21 07:40:58;;;;;;;15.80;11.80;;;;;;;6.78;90.98;100297.76;105716;1256;74769;-76
2024/03/21 07:43:25;;;;;;;18.10;12.70;;;;;;;6.79;90.39;100295.67;105852;1261;71311;-75
2024/03/21 07:45:53;;;;;;;15.30;11.00;;;;;;;6.81;90.62;100296.61;105763;1256;74578;-74
2024/03/21 07:48:21;;;;;;;14.50;11.50;;;;;;;6.86;90.61;100297.36;105725;1256;61218;-74
2024/03/21 07:50:49;;;;;;;20.70;13.30;;;;;;;6.95;89.85;100295.13;105779;1255;61271;-75
2024/03/21 07:53:16;;;;;;;20.80;14.00;;;;;;;6.98;89.48;100292.91;105684;1255;74501;-76
2024/03/21 07:55:43;;;;;;;19.80;13.10;;;;;;;7.02;89.69;100295.16;105671;1255;70991;-75
2024/03/21 07:58:11;;;;;;;21.30;14.10;;;;;;;7.10;90.09;100294.13;105620;1256;73016;-76
2024/03/21 08:00:38;;;;;;;21.70;16.10;;;;;;;7.18;90.51;100294.15;105789;1256;62757;-76
2024/03/21 08:03:05;;;;;;;21.60;13.80;;;;;;;7.26;90.18;100295.42;105683;1258;62140;-77
2024/03/21 08:05:33;;;;;;;22.00;13.50;;;;;;;7.34;90.52;100297.72;105559;1255;75660;-76
2024/03/21 08:08:00;;;;;;;21.40;14.20;;;;;;;7.43;91.32;100299.73;105850;1258;72744;-76
2024/03/21 08:10:28;;;;;;;19.30;14.30;;;;;;;7.51;91.42;100299.91;105617;1256;74270;-76
2024/03/21 08:12:55;;;;;;;22.10;14.90;;;;;;;7.61;91.85;100301.11;105795;1255;62116;-75
2024/03/21 08:15:23;;;;;;;20.50;13.80;;;;;;;7.71;91.59;100308.74;106251;1255;62873;-76
2024/03/21 08:17:52;;;;;;;17.30;12.70;;;;;;;7.77;90.32;100305.75;107095;1255;74530;-76
2024/03/21 08:20:19;;;;;;;18.90;14.60;;;;;;;7.83;90.22;100306.59;106922;1260;71038;-76
2024/03/21 08:22:47;;;;;;;19.00;12.60;;;;;;;7.90;90.43;100307.92;105844;1255;71743;-76
2024/03/21 08:25:15;;;;;;;21.50;13.00;;;;;;;8.00;89.95;100307.73;106162;1261;62628;-79
2024/03/21 08:27:43;;;;;;;18.20;12.90;;;;;;;8.10;90.10;100305.42;106301;1255;61253;-82
2024/03/21 08:30:11;;;;;;;19.30;13.90;;;;;;;8.21;90.14;100307.27;106378;1258;74835;-82
2024/03/21 08:32:38;;;;;;;19.30;14.00;;;;;;;8.32;89.89;100307.91;106039;1258;72711;-77
2024/03/21 08:35:06;;;;;;;18.40;13.40;;;;;;;8.44;89.27;100308.95;105849;1261;74058;-77
2024/03/21 08:37:34;;;;;;;20.80;13.40;;;;;;;8.55;88.19;100310.27;105831;1256;61227;-77
2024/03/21 08:40:01;;;;;;;20.70;13.60;;;;;;;8.62;86.85;100308.68;105925;1260;61137;-77
2024/03/21 08:42:29;;;;;;;17.70;12.70;;;;;;;8.69;86.71;100308.95;105879;1256;74885;-78
2024/03/21 08:44:58;;;;;;;18.40;13.70;;;;;;;8.77;88.99;100308.71;106188;1257;72246;-76
2024/03/21 08:47:26;;;;;;;19.90;13.70;;;;;;;8.85;89.80;100310.27;106393;1256;73740;-76
2024/03/21 08:49:53;;;;;;;17.60;12.80;;;;;;;9.00;88.50;100309.02;105941;1256;62605;-80
2024/03/21 08:52:21;;;;;;;19.60;12.70;;;;;;;9.10;87.82;100309.89;106071;1255;61233;-79
2024/03/21 08:54:48;;;;;;;19.80;12.30;;;;;;;9.20;88.49;100307.13;106202;1255;74495;-79
2024/03/21 08:57:16;;;;;;;16.70;12.80;;;;;;;9.37;88.39;100311.05;105967;1255;71790;-80
2024/03/21 08:59:44;;;;;;;15.80;12.10;;;;;;;9.50;87.80;100303.44;105917;1256;74749;-77
2024/03/21 09:02:13;;;;;;;19.00;14.30;;;;;;;9.68;87.26;100309.01;105934;1255;63140;-79
2024/03/21 09:04:41;;;;;;;17.00;12.60;;;;;;;9.86;87.09;100305.48;106618;1260;61344;-79
2024/03/21 09:07:09;;;;;;;15.50;12.70;;;;;;;10.05;87.05;100307.71;106490;1256;75217;-79
2024/03/21 09:09:36;;;;;;;20.60;13.00;;;;;;;10.22;87.18;100307.22;106120;1255;70148;-80
2024/03/21 09:12:04;;;;;;;17.00;12.10;;;;;;;10.44;87.07;100307.77;106840;1256;74141;-77
2024/03/21 09:14:32;;;;;;;22.20;13.20;;;;;;;10.67;85.28;100307.05;107778;1255;62658;-77
2024/03/21 09:16:59;;;;;;;15.60;11.70;;;;;;;11.05;86.94;100305.66;108091;1255;59448;-77
2024/03/21 09:19:27;;;;;;;14.90;12.30;;;;;;;11.50;82.79;100305.65;106558;1260;75543;-78
2024/03/21 09:21:56;;;;;;;17.90;12.00;;;;;;;12.01;85.14;100303.36;106535;1255;71459;-79
2024/03/21 09:24:27;;;;;;;14.80;12.60;;;;;;;12.55;82.39;100302.85;107108;1255;73219;-78
2024/03/21 09:26:54;;;;;;;20.10;13.20;;;;;;;13.09;82.90;100301.92;106244;1261;62625;-77
2024/03/21 09:29:22;;;;;;;15.70;12.30;;;;;;;13.59;84.11;100301.85;106138;1256;61617;-79
2024/03/21 09:31:49;;;;;;;14.90;12.30;;;;;;;14.13;83.38;100300.06;106344;1255;75834;-77
2024/03/21 09:34:17;;;;;;;19.80;12.20;;;;;;;14.64;80.49;100298.33;107099;1255;72318;-79
2024/03/21 09:36:48;;;;;;;14.90;12.00;;;;;;;15.12;75.13;100298.02;106684;1259;74763;-77
2024/03/21 09:39:17;;;;;;;14.90;10.60;;;;;;;15.52;72.70;100297.29;107417;1255;62713;-80
2024/03/21 09:41:45;;;;;;;16.90;11.80;;;;;;;15.87;71.18;100295.30;107547;1259;61131;-78
2024/03/21 09:44:13;;;;;;;16.40;11.90;;;;;;;16.23;73.44;100295.34;106644;1263;75565;-79
2024/03/21 09:46:45;;;;;;;13.00;11.00;;;;;;;16.62;71.13;100296.50;106244;1256;69537;-80
2024/03/21 09:49:14;;;;;;;14.80;11.10;;;;;;;16.94;72.60;100296.15;106072;1255;71754;-81
2024/03/21 09:51:42;;;;;;;12.50;11.10;;;;;;;17.25;68.89;100291.96;107222;1255;61496;-86
2024/03/21 09:54:11;;;;;;;16.50;11.80;;;;;;;17.55;67.71;100289.45;108260;1255;61274;-84
2024/03/21 09:56:42;;;;;;;14.70;12.30;;;;;;;17.84;68.21;100288.54;108296;1255;77012;-88
2024/03/21 09:59:15;;;;;;;16.60;11.10;;;;;;;18.24;65.17;100281.64;108743;1255;69296;-84
2024/03/21 10:01:46;;;;;;;17.50;13.40;;;;;;;18.68;66.11;100280.17;108248;1263;73550;-85
2024/03/21 10:04:15;;;;;;;17.30;13.00;;;;;;;18.97;61.49;100280.58;107694;1255;62571;-81
2024/03/21 10:06:46;;;;;;;19.20;12.80;;;;;;;19.32;59.02;100276.84;108864;1255;58968;-85
2024/03/21 10:09:14;;;;;;;16.10;11.20;;;;;;;19.70;58.64;100275.11;108522;1255;73130;-79
2024/03/21 10:11:42;;;;;;;12.20;10.80;;;;;;;20.07;59.27;100277.77;106216;1259;69191;-78
2024/03/21 10:14:12;;;;;;;15.60;11.50;;;;;;;20.44;56.37;100272.95;106271;1256;72682;-78
2024/03/21 10:16:40;;;;;;;21.20;11.50;;;;;;;20.82;54.66;100273.60;106166;1255;62221;-78
2024/03/21 10:19:08;;;;;;;15.70;11.00;;;;;;;21.10;53.24;100272.78;106527;1255;61277;-78
2024/03/21 10:21:36;;;;;;;12.50;10.90;;;;;;;21.38;56.11;100276.84;105894;1262;74527;-77
2024/03/21 10:24:04;;;;;;;16.50;11.60;;;;;;;21.70;52.55;100276.11;106638;1258;70512;-77
2024/03/21 10:26:32;;;;;;;14.90;11.70;;;;;;;22.04;51.70;100268.86;106045;1261;73814;-79
2024/03/21 10:28:59;;;;;;;12.90;10.70;;;;;;;22.22;50.18;100272.30;105818;1261;61233;-80
2024/03/21 10:31:27;;;;;;;18.20;11.50;;;;;;;22.26;50.04;100267.34;105933;1255;61302;-78
2024/03/21 10:33:57;;;;;;;17.50;11.30;;;;;;;22.46;48.10;100268.52;105829;1255;77029;-80
2024/03/21 10:36:24;;;;;;;15.20;11.60;;;;;;;22.68;47.54;100266.02;105873;1255;72740;-77
2024/03/21 10:38:52;;;;;;;13.30;11.30;;;;;;;22.88;46.30;100261.66;105758;1256;75103;-79
2024/03/21 10:41:24;;;;;;;16.20;11.20;;;;;;;22.94;45.01;100264.02;105912;1258;60093;-76
2024/03/21 10:43:59;;;;;;;17.50;10.70;;;;;;;22.93;43.98;100263.40;106065;1255;61309;-79
2024/03/21 10:46:35;;;;;;;14.90;11.10;;;;;;;22.92;44.10;100265.48;106263;1255;73323;-79
2024/03/21 10:49:05;;;;;;;17.10;10.30;;;;;;;22.90;42.82;100255.67;106180;1255;72412;-80
2024/03/21 10:51:40;;;;;;;13.80;10.70;;;;;;;22.93;43.11;100255.44;107767;1255;73502;-81
2024/03/21 10:54:07;;;;;;;15.00;11.80;;;;;;;23.13;42.58;100256.93;106621;1255;61229;-82
2024/03/21 10:56:41;;;;;;;13.70;9.90;;;;;;;23.44;40.42;100255.05;105827;1263;62050;-81
2024/03/21 10:59:15;;;;;;;13.80;10.50;;;;;;;23.64;40.08;100252.30;106163;1255;75816;-79
2024/03/21 11:01:47;;;;;;;17.50;9.90;;;;;;;23.84;39.36;100249.71;107948;1255;71939;-79
2024/03/21 11:04:15;;;;;;;13.80;9.80;;;;;;;24.05;38.25;100247.21;108631;1255;75037;-81
2024/03/21 11:06:47;;;;;;;15.20;10.60;;;;;;;24.23;37.51;100248.94;106906;1255;61282;-83
2024/03/21 11:09:14;;;;;;;15.40;11.40;;;;;;;24.44;37.36;100243.99;106202;1261;61255;-84
2024/03/21 11:11:42;;;;;;;12.40;9.50;;;;;;;24.72;37.23;100240.11;106345;1260;75001;-82
2024/03/21 11:14:10;;;;;;;13.70;10.20;;;;;;;25.11;36.70;100239.93;106170;1253;71936;-83
2024/03/21 11:16:40;;;;;;;14.50;10.00;;;;;;;25.44;36.00;100239.69;106244;1261;73364;-82